Página principal
METAR-TAF:

METAR-TAF

Aeroportos :

Aeroporto Internacional de Mehrabad

Teerã, Irão

latitude: 35-41N, longitude: 051-21E, altura: 1204 m

Observação actual do tempo

O boletim foi feito há 42 minutos, às 10:00 UTC
Vento 8 kt de es-sudeste
Temperatura 39°C
Humidade 7%
Pressão 1009 hPa
Visibilidade 10 km ou mais
Poucas nuvensa uma altura de 10000 ft

METAR: OIII 201000Z 11008KT 9999 FEW100 39/M03 Q1009 A2980 NOSIG

Hora: 15:12 (10:42 UTC)

Previsão

O boletim foi feito há 4 horas e 57 minutos, às 05:45 UTC
Previsão válida de 20 às 06 UTC a 21 às 12 UTC
Vento 8 kt de su-sudeste
Visibilidade: 8000 m
Poucas nuvensa uma altura de 4000 ft
Nuvens dispersasa uma altura de 10000 ft
Temporariamente
de 20 às 08 UTC a 20 às 15 UTC
Vento 16 kt de nordeste
Temporariamente
de 21 às 08 UTC a 21 às 01 UTC
Vento 16 kt de sudeste com rajadas de 25 kt

TAF: OIII 200545Z 2006/2112 16004MPS 8000 FEW040 SCT100 TEMPO 2008/2015 04008MPS TEMPO 2108/21012 14008G13MPS

Observações e previsões do tempo de mais de 4000 aeroportos (mensagens METAR e TAF).

As estações disponíveis são os pontos amarelos e vermelhos sobre o mapa.

Mova o rato sobre o mapa para ver o nome da estação.

Depois clique no ponto para visualizar as observações e previsões meteorológicas.

Para alterar o mapa : clique nos botões verdes com uma cruz preta para aumentar o zoom; no botão verde com uma pitada de zoom; ou nas setas verdes para mapas adjacentes.


METAR-TAF: